sensor_id;sensor_type;location;lat;lon;timestamp;P1;durP1;ratioP1;P2;durP2;ratioP2
2888;SDS011;1453;42.708;23.282;2023-02-26T00:00:03;11.20;;;5.63;;
2888;SDS011;1453;42.708;23.282;2023-02-26T00:02:34;17.20;;;5.77;;
2888;SDS011;1453;42.708;23.282;2023-02-26T00:05:01;16.33;;;6.80;;
2888;SDS011;1453;42.708;23.282;2023-02-26T00:07:28;10.43;;;5.53;;
2888;SDS011;1453;42.708;23.282;2023-02-26T00:09:54;10.43;;;5.90;;
2888;SDS011;1453;42.708;23.282;2023-02-26T00:12:20;14.37;;;8.27;;
2888;SDS011;1453;42.708;23.282;2023-02-26T00:14:47;10.10;;;5.60;;
2888;SDS011;1453;42.708;23.282;2023-02-26T00:17:29;5.80;;;3.30;;
2888;SDS011;1453;42.708;23.282;2023-02-26T00:20:01;17.57;;;5.40;;
2888;SDS011;1453;42.708;23.282;2023-02-26T00:22:29;26.97;;;7.10;;
2888;SDS011;1453;42.708;23.282;2023-02-26T00:24:55;10.43;;;5.03;;
2888;SDS011;1453;42.708;23.282;2023-02-26T00:27:21;13.37;;;5.37;;
2888;SDS011;1453;42.708;23.282;2023-02-26T00:29:47;13.93;;;5.63;;
2888;SDS011;1453;42.708;23.282;2023-02-26T00:32:14;17.70;;;6.53;;
2888;SDS011;1453;42.708;23.282;2023-02-26T00:34:42;14.03;;;5.37;;
2888;SDS011;1453;42.708;23.282;2023-02-26T00:40:10;16.60;;;5.73;;
2888;SDS011;1453;42.708;23.282;2023-02-26T00:42:59;12.90;;;6.77;;
2888;SDS011;1453;42.708;23.282;2023-02-26T00:45:27;13.00;;;5.67;;
2888;SDS011;1453;42.708;23.282;2023-02-26T00:47:55;9.77;;;4.90;;
2888;SDS011;1453;42.708;23.282;2023-02-26T00:50:58;14.33;;;5.20;;
2888;SDS011;1453;42.708;23.282;2023-02-26T00:56:08;8.10;;;5.43;;
2888;SDS011;1453;42.708;23.282;2023-02-26T00:58:33;13.07;;;5.03;;
2888;SDS011;1453;42.708;23.282;2023-02-26T01:00:59;14.93;;;5.80;;
2888;SDS011;1453;42.708;23.282;2023-02-26T01:03:25;17.60;;;6.73;;
2888;SDS011;1453;42.708;23.282;2023-02-26T01:05:51;15.90;;;5.93;;
2888;SDS011;1453;42.708;23.282;2023-02-26T01:08:19;12.10;;;5.00;;
2888;SDS011;1453;42.708;23.282;2023-02-26T01:10:56;13.43;;;5.37;;
2888;SDS011;1453;42.708;23.282;2023-02-26T01:13:22;17.53;;;5.80;;
2888;SDS011;1453;42.708;23.282;2023-02-26T01:15:49;15.43;;;5.73;;
2888;SDS011;1453;42.708;23.282;2023-02-26T01:18:23;18.57;;;5.37;;
2888;SDS011;1453;42.708;23.282;2023-02-26T01:21:07;16.27;;;6.00;;
2888;SDS011;1453;42.708;23.282;2023-02-26T01:23:40;11.40;;;5.33;;
2888;SDS011;1453;42.708;23.282;2023-02-26T01:26:22;13.53;;;4.33;;
2888;SDS011;1453;42.708;23.282;2023-02-26T01:28:52;24.20;;;5.60;;
2888;SDS011;1453;42.708;23.282;2023-02-26T01:31:38;13.70;;;4.17;;
2888;SDS011;1453;42.708;23.282;2023-02-26T01:34:26;9.53;;;4.80;;
2888;SDS011;1453;42.708;23.282;2023-02-26T01:37:14;15.17;;;5.47;;
2888;SDS011;1453;42.708;23.282;2023-02-26T01:40:20;14.13;;;5.60;;
2888;SDS011;1453;42.708;23.282;2023-02-26T01:42:51;9.40;;;4.50;;
2888;SDS011;1453;42.708;23.282;2023-02-26T01:45:28;12.90;;;5.77;;
2888;SDS011;1453;42.708;23.282;2023-02-26T01:48:02;4.73;;;2.93;;
2888;SDS011;1453;42.708;23.282;2023-02-26T01:51:03;7.23;;;3.20;;
2888;SDS011;1453;42.708;23.282;2023-02-26T01:53:29;11.13;;;4.00;;
2888;SDS011;1453;42.708;23.282;2023-02-26T01:55:57;17.30;;;8.57;;
2888;SDS011;1453;42.708;23.282;2023-02-26T01:58:38;31.47;;;18.30;;
2888;SDS011;1453;42.708;23.282;2023-02-26T02:01:05;24.90;;;9.37;;
2888;SDS011;1453;42.708;23.282;2023-02-26T02:03:32;14.13;;;7.10;;
2888;SDS011;1453;42.708;23.282;2023-02-26T02:06:04;21.40;;;7.20;;
2888;SDS011;1453;42.708;23.282;2023-02-26T02:08:40;26.00;;;10.50;;
2888;SDS011;1453;42.708;23.282;2023-02-26T02:11:08;21.27;;;9.93;;
2888;SDS011;1453;42.708;23.282;2023-02-26T02:25:30;12.17;;;5.30;;
2888;SDS011;1453;42.708;23.282;2023-02-26T02:34:10;12.23;;;4.13;;
2888;SDS011;1453;42.708;23.282;2023-02-26T02:39:29;13.13;;;4.20;;
2888;SDS011;1453;42.708;23.282;2023-02-26T02:42:05;11.43;;;4.20;;
2888;SDS011;1453;42.708;23.282;2023-02-26T02:44:45;9.07;;;5.00;;
2888;SDS011;1453;42.708;23.282;2023-02-26T02:47:19;11.80;;;3.97;;
2888;SDS011;1453;42.708;23.282;2023-02-26T02:49:50;10.60;;;3.73;;
2888;SDS011;1453;42.708;23.282;2023-02-26T02:56:00;8.57;;;4.43;;
2888;SDS011;1453;42.708;23.282;2023-02-26T02:58:25;13.70;;;5.67;;
2888;SDS011;1453;42.708;23.282;2023-02-26T03:00:57;15.27;;;4.90;;
2888;SDS011;1453;42.708;23.282;2023-02-26T03:06:36;9.17;;;4.30;;
2888;SDS011;1453;42.708;23.282;2023-02-26T03:09:02;10.13;;;4.47;;
2888;SDS011;1453;42.708;23.282;2023-02-26T03:11:33;14.17;;;4.70;;
2888;SDS011;1453;42.708;23.282;2023-02-26T03:13:59;19.20;;;5.73;;
2888;SDS011;1453;42.708;23.282;2023-02-26T03:22:03;11.13;;;4.80;;
2888;SDS011;1453;42.708;23.282;2023-02-26T03:24:36;10.53;;;3.77;;
2888;SDS011;1453;42.708;23.282;2023-02-26T03:30:05;6.80;;;3.00;;
2888;SDS011;1453;42.708;23.282;2023-02-26T03:38:06;10.10;;;4.50;;
2888;SDS011;1453;42.708;23.282;2023-02-26T03:40:40;8.17;;;4.93;;
2888;SDS011;1453;42.708;23.282;2023-02-26T03:43:19;6.50;;;3.17;;
2888;SDS011;1453;42.708;23.282;2023-02-26T03:45:56;11.43;;;4.70;;
2888;SDS011;1453;42.708;23.282;2023-02-26T03:48:28;13.23;;;4.13;;
2888;SDS011;1453;42.708;23.282;2023-02-26T03:50:57;10.13;;;4.57;;
2888;SDS011;1453;42.708;23.282;2023-02-26T03:53:30;15.10;;;5.47;;
2888;SDS011;1453;42.708;23.282;2023-02-26T03:56:20;14.07;;;5.23;;
2888;SDS011;1453;42.708;23.282;2023-02-26T03:58:55;13.43;;;5.10;;
2888;SDS011;1453;42.708;23.282;2023-02-26T04:01:22;14.07;;;4.80;;
2888;SDS011;1453;42.708;23.282;2023-02-26T04:06:56;12.83;;;4.83;;
2888;SDS011;1453;42.708;23.282;2023-02-26T04:09:22;19.30;;;5.10;;
2888;SDS011;1453;42.708;23.282;2023-02-26T04:11:49;17.20;;;5.37;;
2888;SDS011;1453;42.708;23.282;2023-02-26T04:14:17;11.83;;;5.80;;
2888;SDS011;1453;42.708;23.282;2023-02-26T04:16:43;14.97;;;5.20;;
2888;SDS011;1453;42.708;23.282;2023-02-26T04:19:10;10.30;;;4.90;;
2888;SDS011;1453;42.708;23.282;2023-02-26T04:21:36;20.30;;;6.07;;
2888;SDS011;1453;42.708;23.282;2023-02-26T04:24:02;16.27;;;5.20;;
2888;SDS011;1453;42.708;23.282;2023-02-26T04:26:28;14.27;;;5.40;;
2888;SDS011;1453;42.708;23.282;2023-02-26T04:28:53;15.43;;;5.50;;
2888;SDS011;1453;42.708;23.282;2023-02-26T04:31:19;21.63;;;6.57;;
2888;SDS011;1453;42.708;23.282;2023-02-26T04:33:45;16.37;;;4.70;;
2888;SDS011;1453;42.708;23.282;2023-02-26T04:36:11;13.93;;;4.90;;
2888;SDS011;1453;42.708;23.282;2023-02-26T04:38:37;16.63;;;5.07;;
2888;SDS011;1453;42.708;23.282;2023-02-26T04:41:03;18.90;;;4.90;;
2888;SDS011;1453;42.708;23.282;2023-02-26T04:43:30;18.77;;;4.57;;
2888;SDS011;1453;42.708;23.282;2023-02-26T04:45:56;12.60;;;4.57;;
2888;SDS011;1453;42.708;23.282;2023-02-26T04:48:22;18.37;;;4.97;;
2888;SDS011;1453;42.708;23.282;2023-02-26T04:50:48;14.53;;;4.77;;
2888;SDS011;1453;42.708;23.282;2023-02-26T04:53:14;15.50;;;4.77;;
2888;SDS011;1453;42.708;23.282;2023-02-26T04:55:40;12.70;;;4.10;;
2888;SDS011;1453;42.708;23.282;2023-02-26T04:58:06;11.83;;;5.03;;
2888;SDS011;1453;42.708;23.282;2023-02-26T05:00:32;15.03;;;4.90;;
2888;SDS011;1453;42.708;23.282;2023-02-26T05:02:58;13.93;;;4.57;;
2888;SDS011;1453;42.708;23.282;2023-02-26T05:05:25;14.63;;;5.63;;
2888;SDS011;1453;42.708;23.282;2023-02-26T05:07:50;10.50;;;3.70;;
2888;SDS011;1453;42.708;23.282;2023-02-26T05:10:19;13.97;;;4.60;;
2888;SDS011;1453;42.708;23.282;2023-02-26T05:12:45;10.50;;;4.93;;
2888;SDS011;1453;42.708;23.282;2023-02-26T05:15:11;8.50;;;4.37;;
2888;SDS011;1453;42.708;23.282;2023-02-26T05:17:37;17.37;;;5.07;;
2888;SDS011;1453;42.708;23.282;2023-02-26T05:20:03;7.47;;;3.10;;
2888;SDS011;1453;42.708;23.282;2023-02-26T05:22:30;10.73;;;4.07;;
2888;SDS011;1453;42.708;23.282;2023-02-26T05:24:56;20.10;;;5.57;;
2888;SDS011;1453;42.708;23.282;2023-02-26T05:27:22;8.90;;;3.50;;
2888;SDS011;1453;42.708;23.282;2023-02-26T05:29:47;8.67;;;3.37;;
2888;SDS011;1453;42.708;23.282;2023-02-26T05:32:13;11.73;;;3.80;;
2888;SDS011;1453;42.708;23.282;2023-02-26T05:34:39;10.27;;;3.97;;
2888;SDS011;1453;42.708;23.282;2023-02-26T05:37:05;7.63;;;3.37;;
2888;SDS011;1453;42.708;23.282;2023-02-26T05:39:31;18.60;;;5.60;;
2888;SDS011;1453;42.708;23.282;2023-02-26T05:41:56;13.47;;;4.30;;
2888;SDS011;1453;42.708;23.282;2023-02-26T05:44:22;12.83;;;4.63;;
2888;SDS011;1453;42.708;23.282;2023-02-26T05:46:48;12.50;;;3.80;;
2888;SDS011;1453;42.708;23.282;2023-02-26T05:49:14;5.60;;;3.03;;
2888;SDS011;1453;42.708;23.282;2023-02-26T05:51:40;11.07;;;3.90;;
2888;SDS011;1453;42.708;23.282;2023-02-26T05:54:07;15.73;;;3.40;;
2888;SDS011;1453;42.708;23.282;2023-02-26T05:56:34;7.53;;;2.97;;
2888;SDS011;1453;42.708;23.282;2023-02-26T05:59:00;11.03;;;4.20;;
2888;SDS011;1453;42.708;23.282;2023-02-26T06:01:26;13.90;;;5.37;;
2888;SDS011;1453;42.708;23.282;2023-02-26T06:03:52;12.43;;;4.97;;
2888;SDS011;1453;42.708;23.282;2023-02-26T06:06:18;12.20;;;4.33;;
2888;SDS011;1453;42.708;23.282;2023-02-26T06:08:45;15.93;;;4.17;;
2888;SDS011;1453;42.708;23.282;2023-02-26T06:11:11;9.80;;;4.00;;
2888;SDS011;1453;42.708;23.282;2023-02-26T06:13:37;4.87;;;3.27;;
2888;SDS011;1453;42.708;23.282;2023-02-26T06:16:04;12.00;;;4.83;;
2888;SDS011;1453;42.708;23.282;2023-02-26T06:18:30;16.07;;;3.90;;
2888;SDS011;1453;42.708;23.282;2023-02-26T06:20:57;12.27;;;4.13;;
2888;SDS011;1453;42.708;23.282;2023-02-26T06:23:26;5.50;;;2.30;;
2888;SDS011;1453;42.708;23.282;2023-02-26T06:25:52;14.03;;;4.30;;
2888;SDS011;1453;42.708;23.282;2023-02-26T06:28:18;15.53;;;5.57;;
2888;SDS011;1453;42.708;23.282;2023-02-26T06:30:45;12.17;;;4.93;;
2888;SDS011;1453;42.708;23.282;2023-02-26T06:33:11;14.17;;;4.07;;
2888;SDS011;1453;42.708;23.282;2023-02-26T06:35:37;10.67;;;4.50;;
2888;SDS011;1453;42.708;23.282;2023-02-26T06:38:03;12.53;;;4.67;;
2888;SDS011;1453;42.708;23.282;2023-02-26T06:40:29;10.50;;;4.73;;
2888;SDS011;1453;42.708;23.282;2023-02-26T06:42:55;12.97;;;3.97;;
2888;SDS011;1453;42.708;23.282;2023-02-26T06:45:21;7.10;;;3.60;;
2888;SDS011;1453;42.708;23.282;2023-02-26T06:47:49;3.67;;;2.77;;
2888;SDS011;1453;42.708;23.282;2023-02-26T06:50:15;13.60;;;4.20;;
2888;SDS011;1453;42.708;23.282;2023-02-26T06:52:41;8.43;;;4.13;;
2888;SDS011;1453;42.708;23.282;2023-02-26T06:55:07;16.13;;;4.63;;
2888;SDS011;1453;42.708;23.282;2023-02-26T06:57:34;10.17;;;4.03;;
2888;SDS011;1453;42.708;23.282;2023-02-26T07:00:00;11.03;;;4.10;;
2888;SDS011;1453;42.708;23.282;2023-02-26T07:02:26;14.67;;;4.87;;
2888;SDS011;1453;42.708;23.282;2023-02-26T07:04:52;20.67;;;4.50;;
2888;SDS011;1453;42.708;23.282;2023-02-26T07:07:18;12.50;;;3.67;;
2888;SDS011;1453;42.708;23.282;2023-02-26T07:09:44;14.33;;;4.40;;
2888;SDS011;1453;42.708;23.282;2023-02-26T07:12:10;12.23;;;5.17;;
2888;SDS011;1453;42.708;23.282;2023-02-26T07:14:35;13.70;;;4.73;;
2888;SDS011;1453;42.708;23.282;2023-02-26T07:17:01;11.40;;;2.80;;
2888;SDS011;1453;42.708;23.282;2023-02-26T07:19:27;16.50;;;4.70;;
2888;SDS011;1453;42.708;23.282;2023-02-26T07:21:54;10.67;;;4.73;;
2888;SDS011;1453;42.708;23.282;2023-02-26T07:24:20;9.30;;;3.90;;
2888;SDS011;1453;42.708;23.282;2023-02-26T07:26:47;13.37;;;5.07;;
2888;SDS011;1453;42.708;23.282;2023-02-26T07:29:12;15.17;;;4.40;;
2888;SDS011;1453;42.708;23.282;2023-02-26T07:31:38;10.27;;;3.10;;
2888;SDS011;1453;42.708;23.282;2023-02-26T07:34:04;7.30;;;3.57;;
2888;SDS011;1453;42.708;23.282;2023-02-26T07:36:30;9.13;;;3.87;;
2888;SDS011;1453;42.708;23.282;2023-02-26T07:38:56;8.40;;;4.20;;
2888;SDS011;1453;42.708;23.282;2023-02-26T07:41:22;9.17;;;3.33;;
2888;SDS011;1453;42.708;23.282;2023-02-26T07:43:47;19.47;;;5.07;;
2888;SDS011;1453;42.708;23.282;2023-02-26T07:46:13;15.50;;;4.90;;
2888;SDS011;1453;42.708;23.282;2023-02-26T07:48:39;7.87;;;3.00;;
2888;SDS011;1453;42.708;23.282;2023-02-26T07:51:05;11.80;;;5.67;;
2888;SDS011;1453;42.708;23.282;2023-02-26T07:53:32;27.23;;;5.70;;
2888;SDS011;1453;42.708;23.282;2023-02-26T07:55:58;12.93;;;4.40;;
2888;SDS011;1453;42.708;23.282;2023-02-26T07:58:24;28.80;;;6.73;;
2888;SDS011;1453;42.708;23.282;2023-02-26T08:00:50;26.03;;;5.03;;
2888;SDS011;1453;42.708;23.282;2023-02-26T08:03:17;11.83;;;5.20;;
2888;SDS011;1453;42.708;23.282;2023-02-26T08:05:43;12.93;;;4.73;;
2888;SDS011;1453;42.708;23.282;2023-02-26T08:08:09;12.50;;;5.40;;
2888;SDS011;1453;42.708;23.282;2023-02-26T08:10:35;11.93;;;4.00;;
2888;SDS011;1453;42.708;23.282;2023-02-26T08:13:03;11.40;;;5.50;;
2888;SDS011;1453;42.708;23.282;2023-02-26T08:15:29;24.40;;;4.87;;
2888;SDS011;1453;42.708;23.282;2023-02-26T08:17:55;23.47;;;5.80;;
2888;SDS011;1453;42.708;23.282;2023-02-26T08:20:21;14.63;;;5.00;;
2888;SDS011;1453;42.708;23.282;2023-02-26T08:22:49;8.70;;;3.40;;
2888;SDS011;1453;42.708;23.282;2023-02-26T08:25:15;19.07;;;4.97;;
2888;SDS011;1453;42.708;23.282;2023-02-26T08:27:42;9.50;;;3.00;;
2888;SDS011;1453;42.708;23.282;2023-02-26T08:30:08;11.23;;;4.17;;
2888;SDS011;1453;42.708;23.282;2023-02-26T08:32:35;10.50;;;5.50;;
2888;SDS011;1453;42.708;23.282;2023-02-26T08:35:01;14.90;;;5.73;;
2888;SDS011;1453;42.708;23.282;2023-02-26T08:37:27;14.97;;;4.20;;
2888;SDS011;1453;42.708;23.282;2023-02-26T08:39:52;10.27;;;4.60;;
2888;SDS011;1453;42.708;23.282;2023-02-26T08:42:18;15.80;;;4.60;;
2888;SDS011;1453;42.708;23.282;2023-02-26T08:44:45;12.57;;;4.30;;
2888;SDS011;1453;42.708;23.282;2023-02-26T08:47:11;18.90;;;5.10;;
2888;SDS011;1453;42.708;23.282;2023-02-26T08:49:37;20.90;;;4.10;;
2888;SDS011;1453;42.708;23.282;2023-02-26T08:52:03;18.60;;;5.03;;
2888;SDS011;1453;42.708;23.282;2023-02-26T08:54:29;25.13;;;6.37;;
2888;SDS011;1453;42.708;23.282;2023-02-26T08:56:56;19.00;;;4.83;;
2888;SDS011;1453;42.708;23.282;2023-02-26T08:59:25;10.20;;;4.27;;
2888;SDS011;1453;42.708;23.282;2023-02-26T09:01:51;17.70;;;4.87;;
2888;SDS011;1453;42.708;23.282;2023-02-26T09:04:17;10.87;;;4.80;;
2888;SDS011;1453;42.708;23.282;2023-02-26T09:06:43;24.47;;;5.80;;
2888;SDS011;1453;42.708;23.282;2023-02-26T09:09:09;5.83;;;3.37;;
2888;SDS011;1453;42.708;23.282;2023-02-26T09:11:35;9.70;;;4.30;;
2888;SDS011;1453;42.708;23.282;2023-02-26T09:14:01;13.30;;;4.50;;
2888;SDS011;1453;42.708;23.282;2023-02-26T09:16:28;10.83;;;3.97;;
2888;SDS011;1453;42.708;23.282;2023-02-26T09:18:55;9.33;;;3.00;;
2888;SDS011;1453;42.708;23.282;2023-02-26T09:21:22;18.67;;;4.57;;
2888;SDS011;1453;42.708;23.282;2023-02-26T09:23:48;14.37;;;4.50;;
2888;SDS011;1453;42.708;23.282;2023-02-26T09:26:14;19.03;;;4.17;;
2888;SDS011;1453;42.708;23.282;2023-02-26T09:28:40;6.90;;;3.10;;
2888;SDS011;1453;42.708;23.282;2023-02-26T09:31:06;8.63;;;4.27;;
2888;SDS011;1453;42.708;23.282;2023-02-26T09:33:32;18.53;;;4.73;;
2888;SDS011;1453;42.708;23.282;2023-02-26T09:35:58;11.30;;;5.20;;
2888;SDS011;1453;42.708;23.282;2023-02-26T09:38:23;13.97;;;7.03;;
2888;SDS011;1453;42.708;23.282;2023-02-26T09:54:45;15.53;;;6.90;;
2888;SDS011;1453;42.708;23.282;2023-02-26T09:57:20;18.80;;;7.47;;
2888;SDS011;1453;42.708;23.282;2023-02-26T09:59:56;22.40;;;6.90;;
2888;SDS011;1453;42.708;23.282;2023-02-26T10:02:43;19.27;;;7.17;;
2888;SDS011;1453;42.708;23.282;2023-02-26T10:08:53;13.60;;;4.70;;
2888;SDS011;1453;42.708;23.282;2023-02-26T10:11:50;12.93;;;4.90;;
2888;SDS011;1453;42.708;23.282;2023-02-26T10:17:51;11.00;;;4.17;;
2888;SDS011;1453;42.708;23.282;2023-02-26T10:21:14;11.23;;;4.20;;
2888;SDS011;1453;42.708;23.282;2023-02-26T10:23:29;13.53;;;4.80;;
2888;SDS011;1453;42.708;23.282;2023-02-26T10:26:06;13.57;;;4.23;;
2888;SDS011;1453;42.708;23.282;2023-02-26T10:28:56;11.90;;;5.03;;
2888;SDS011;1453;42.708;23.282;2023-02-26T10:34:25;15.10;;;4.80;;
2888;SDS011;1453;42.708;23.282;2023-02-26T10:51:46;18.33;;;7.03;;
2888;SDS011;1453;42.708;23.282;2023-02-26T10:54:30;11.93;;;4.33;;
2888;SDS011;1453;42.708;23.282;2023-02-26T10:57:00;16.47;;;6.07;;
2888;SDS011;1453;42.708;23.282;2023-02-26T10:59:28;18.07;;;4.93;;
2888;SDS011;1453;42.708;23.282;2023-02-26T11:01:54;12.60;;;4.20;;
2888;SDS011;1453;42.708;23.282;2023-02-26T11:04:21;15.77;;;4.87;;
2888;SDS011;1453;42.708;23.282;2023-02-26T11:06:51;14.80;;;5.23;;
2888;SDS011;1453;42.708;23.282;2023-02-26T11:11:52;9.27;;;4.57;;
2888;SDS011;1453;42.708;23.282;2023-02-26T11:14:32;9.53;;;4.43;;
2888;SDS011;1453;42.708;23.282;2023-02-26T11:17:03;14.80;;;5.00;;
2888;SDS011;1453;42.708;23.282;2023-02-26T11:19:40;6.10;;;4.20;;
2888;SDS011;1453;42.708;23.282;2023-02-26T11:22:14;16.53;;;5.17;;
2888;SDS011;1453;42.708;23.282;2023-02-26T11:24:44;20.97;;;5.30;;
2888;SDS011;1453;42.708;23.282;2023-02-26T11:27:17;11.30;;;5.13;;
2888;SDS011;1453;42.708;23.282;2023-02-26T11:29:53;8.10;;;4.17;;
2888;SDS011;1453;42.708;23.282;2023-02-26T11:32:34;12.30;;;4.83;;
2888;SDS011;1453;42.708;23.282;2023-02-26T11:35:02;7.83;;;4.07;;
2888;SDS011;1453;42.708;23.282;2023-02-26T11:37:39;16.13;;;5.17;;
2888;SDS011;1453;42.708;23.282;2023-02-26T11:43:11;16.10;;;5.30;;
2888;SDS011;1453;42.708;23.282;2023-02-26T11:45:43;19.30;;;5.33;;
2888;SDS011;1453;42.708;23.282;2023-02-26T11:48:14;11.93;;;5.70;;
2888;SDS011;1453;42.708;23.282;2023-02-26T11:50:51;17.07;;;5.43;;
2888;SDS011;1453;42.708;23.282;2023-02-26T11:53:30;8.73;;;4.10;;
2888;SDS011;1453;42.708;23.282;2023-02-26T11:56:09;15.57;;;5.10;;
2888;SDS011;1453;42.708;23.282;2023-02-26T11:58:38;12.50;;;4.67;;
2888;SDS011;1453;42.708;23.282;2023-02-26T12:01:09;14.83;;;3.90;;
2888;SDS011;1453;42.708;23.282;2023-02-26T12:03:38;13.33;;;4.47;;
2888;SDS011;1453;42.708;23.282;2023-02-26T12:06:20;12.53;;;5.10;;
2888;SDS011;1453;42.708;23.282;2023-02-26T12:08:49;8.30;;;3.60;;
2888;SDS011;1453;42.708;23.282;2023-02-26T12:31:34;11.20;;;3.83;;
2888;SDS011;1453;42.708;23.282;2023-02-26T12:42:46;15.43;;;4.80;;
2888;SDS011;1453;42.708;23.282;2023-02-26T12:46:06;12.70;;;4.77;;
2888;SDS011;1453;42.708;23.282;2023-02-26T12:49:18;9.40;;;3.90;;
2888;SDS011;1453;42.708;23.282;2023-02-26T12:55:18;9.17;;;4.50;;
2888;SDS011;1453;42.708;23.282;2023-02-26T13:15:22;19.43;;;7.00;;
2888;SDS011;1453;42.708;23.282;2023-02-26T13:18:07;12.23;;;4.90;;
2888;SDS011;1453;42.708;23.282;2023-02-26T13:20:53;11.70;;;5.00;;
2888;SDS011;1453;42.708;23.282;2023-02-26T13:23:32;12.47;;;4.60;;
2888;SDS011;1453;42.708;23.282;2023-02-26T13:26:10;21.57;;;5.23;;
2888;SDS011;1453;42.708;23.282;2023-02-26T13:31:14;13.57;;;5.30;;
2888;SDS011;1453;42.708;23.282;2023-02-26T13:33:53;14.40;;;5.90;;
2888;SDS011;1453;42.708;23.282;2023-02-26T13:36:23;30.00;;;6.50;;
2888;SDS011;1453;42.708;23.282;2023-02-26T13:59:03;20.67;;;5.30;;
2888;SDS011;1453;42.708;23.282;2023-02-26T14:01:48;13.40;;;5.10;;
2888;SDS011;1453;42.708;23.282;2023-02-26T14:06:48;14.60;;;5.50;;
2888;SDS011;1453;42.708;23.282;2023-02-26T14:14:43;18.00;;;6.23;;
2888;SDS011;1453;42.708;23.282;2023-02-26T14:20:17;12.50;;;4.90;;
2888;SDS011;1453;42.708;23.282;2023-02-26T14:22:50;23.70;;;6.37;;
2888;SDS011;1453;42.708;23.282;2023-02-26T14:25:38;18.17;;;5.40;;
2888;SDS011;1453;42.708;23.282;2023-02-26T14:33:45;17.67;;;6.53;;
2888;SDS011;1453;42.708;23.282;2023-02-26T14:36:26;18.43;;;5.37;;
2888;SDS011;1453;42.708;23.282;2023-02-26T14:39:06;22.33;;;9.30;;
2888;SDS011;1453;42.708;23.282;2023-02-26T14:41:41;17.67;;;6.00;;
2888;SDS011;1453;42.708;23.282;2023-02-26T14:44:17;16.23;;;5.80;;
2888;SDS011;1453;42.708;23.282;2023-02-26T14:46:50;14.93;;;5.03;;
2888;SDS011;1453;42.708;23.282;2023-02-26T14:49:24;21.70;;;6.30;;
2888;SDS011;1453;42.708;23.282;2023-02-26T15:00:52;16.53;;;6.43;;
2888;SDS011;1453;42.708;23.282;2023-02-26T15:03:42;24.73;;;7.70;;
2888;SDS011;1453;42.708;23.282;2023-02-26T15:14:45;18.50;;;5.60;;
2888;SDS011;1453;42.708;23.282;2023-02-26T15:17:48;15.60;;;5.57;;
2888;SDS011;1453;42.708;23.282;2023-02-26T15:23:44;16.20;;;6.20;;
2888;SDS011;1453;42.708;23.282;2023-02-26T15:28:57;16.07;;;5.20;;
2888;SDS011;1453;42.708;23.282;2023-02-26T15:31:30;14.43;;;5.20;;
2888;SDS011;1453;42.708;23.282;2023-02-26T15:34:05;18.17;;;5.87;;
2888;SDS011;1453;42.708;23.282;2023-02-26T15:36:31;18.70;;;5.23;;
2888;SDS011;1453;42.708;23.282;2023-02-26T15:38:58;13.47;;;5.00;;
2888;SDS011;1453;42.708;23.282;2023-02-26T15:41:26;13.67;;;5.10;;
2888;SDS011;1453;42.708;23.282;2023-02-26T15:43:55;21.47;;;5.83;;
2888;SDS011;1453;42.708;23.282;2023-02-26T15:46:32;15.40;;;5.60;;
2888;SDS011;1453;42.708;23.282;2023-02-26T15:49:04;11.80;;;5.00;;
2888;SDS011;1453;42.708;23.282;2023-02-26T15:51:36;12.10;;;5.90;;
2888;SDS011;1453;42.708;23.282;2023-02-26T15:54:03;16.17;;;6.37;;
2888;SDS011;1453;42.708;23.282;2023-02-26T15:56:31;16.97;;;6.00;;
2888;SDS011;1453;42.708;23.282;2023-02-26T15:59:02;20.50;;;7.10;;
2888;SDS011;1453;42.708;23.282;2023-02-26T16:01:37;19.83;;;6.80;;
2888;SDS011;1453;42.708;23.282;2023-02-26T16:04:06;20.67;;;7.93;;
2888;SDS011;1453;42.708;23.282;2023-02-26T16:06:45;12.93;;;8.20;;
2888;SDS011;1453;42.708;23.282;2023-02-26T16:09:16;17.23;;;7.23;;
2888;SDS011;1453;42.708;23.282;2023-02-26T16:11:59;17.53;;;6.57;;
2888;SDS011;1453;42.708;23.282;2023-02-26T16:14:32;20.13;;;6.87;;
2888;SDS011;1453;42.708;23.282;2023-02-26T16:17:04;24.07;;;7.00;;
2888;SDS011;1453;42.708;23.282;2023-02-26T16:22:13;31.17;;;7.60;;
2888;SDS011;1453;42.708;23.282;2023-02-26T16:24:46;14.30;;;7.83;;
2888;SDS011;1453;42.708;23.282;2023-02-26T16:27:32;10.83;;;6.50;;
2888;SDS011;1453;42.708;23.282;2023-02-26T16:29:59;19.37;;;8.70;;
2888;SDS011;1453;42.708;23.282;2023-02-26T16:32:32;28.20;;;7.97;;
2888;SDS011;1453;42.708;23.282;2023-02-26T16:34:59;19.43;;;8.63;;
2888;SDS011;1453;42.708;23.282;2023-02-26T16:37:35;20.90;;;7.60;;
2888;SDS011;1453;42.708;23.282;2023-02-26T16:40:18;16.20;;;6.83;;
2888;SDS011;1453;42.708;23.282;2023-02-26T16:45:55;17.60;;;7.20;;
2888;SDS011;1453;42.708;23.282;2023-02-26T16:48:30;29.37;;;8.53;;
2888;SDS011;1453;42.708;23.282;2023-02-26T16:51:13;26.03;;;8.30;;
2888;SDS011;1453;42.708;23.282;2023-02-26T16:53:48;19.33;;;9.20;;
2888;SDS011;1453;42.708;23.282;2023-02-26T16:56:23;21.70;;;8.20;;
2888;SDS011;1453;42.708;23.282;2023-02-26T17:01:56;30.30;;;7.67;;
2888;SDS011;1453;42.708;23.282;2023-02-26T17:04:30;19.93;;;7.23;;
2888;SDS011;1453;42.708;23.282;2023-02-26T17:06:59;22.13;;;7.43;;
2888;SDS011;1453;42.708;23.282;2023-02-26T17:09:32;14.70;;;7.00;;
2888;SDS011;1453;42.708;23.282;2023-02-26T17:12:03;20.97;;;7.70;;
2888;SDS011;1453;42.708;23.282;2023-02-26T17:14:43;15.50;;;7.63;;
2888;SDS011;1453;42.708;23.282;2023-02-26T17:17:17;24.37;;;8.03;;
2888;SDS011;1453;42.708;23.282;2023-02-26T17:19:42;14.10;;;7.43;;
2888;SDS011;1453;42.708;23.282;2023-02-26T17:22:11;19.40;;;7.87;;
2888;SDS011;1453;42.708;23.282;2023-02-26T17:24:41;13.13;;;6.70;;
2888;SDS011;1453;42.708;23.282;2023-02-26T17:27:10;17.53;;;7.80;;
2888;SDS011;1453;42.708;23.282;2023-02-26T17:29:48;15.83;;;6.50;;
2888;SDS011;1453;42.708;23.282;2023-02-26T17:32:19;20.23;;;7.33;;
2888;SDS011;1453;42.708;23.282;2023-02-26T17:34:51;28.87;;;8.40;;
2888;SDS011;1453;42.708;23.282;2023-02-26T17:37:18;33.63;;;9.90;;
2888;SDS011;1453;42.708;23.282;2023-02-26T17:39:44;18.67;;;7.40;;
2888;SDS011;1453;42.708;23.282;2023-02-26T17:42:12;17.30;;;8.27;;
2888;SDS011;1453;42.708;23.282;2023-02-26T17:44:43;10.70;;;5.40;;
2888;SDS011;1453;42.708;23.282;2023-02-26T17:47:19;21.30;;;7.60;;
2888;SDS011;1453;42.708;23.282;2023-02-26T17:49:49;24.77;;;9.20;;
2888;SDS011;1453;42.708;23.282;2023-02-26T17:52:16;22.53;;;10.23;;
2888;SDS011;1453;42.708;23.282;2023-02-26T17:54:42;21.53;;;10.00;;
2888;SDS011;1453;42.708;23.282;2023-02-26T17:57:10;16.93;;;8.50;;
2888;SDS011;1453;42.708;23.282;2023-02-26T17:59:42;22.80;;;7.23;;
2888;SDS011;1453;42.708;23.282;2023-02-26T18:02:16;20.23;;;8.20;;
2888;SDS011;1453;42.708;23.282;2023-02-26T18:04:47;17.00;;;7.60;;
2888;SDS011;1453;42.708;23.282;2023-02-26T18:07:14;16.43;;;5.80;;
2888;SDS011;1453;42.708;23.282;2023-02-26T18:09:42;11.93;;;5.37;;
2888;SDS011;1453;42.708;23.282;2023-02-26T18:12:21;12.97;;;5.70;;
2888;SDS011;1453;42.708;23.282;2023-02-26T18:14:47;8.20;;;4.17;;
2888;SDS011;1453;42.708;23.282;2023-02-26T18:17:15;14.37;;;6.13;;
2888;SDS011;1453;42.708;23.282;2023-02-26T18:19:55;20.93;;;7.80;;
2888;SDS011;1453;42.708;23.282;2023-02-26T18:22:21;17.40;;;6.10;;
2888;SDS011;1453;42.708;23.282;2023-02-26T18:24:49;15.60;;;6.47;;
2888;SDS011;1453;42.708;23.282;2023-02-26T18:27:17;22.67;;;8.97;;
2888;SDS011;1453;42.708;23.282;2023-02-26T18:29:45;17.03;;;8.07;;
2888;SDS011;1453;42.708;23.282;2023-02-26T18:32:32;21.03;;;9.13;;
2888;SDS011;1453;42.708;23.282;2023-02-26T18:34:57;21.00;;;8.93;;
2888;SDS011;1453;42.708;23.282;2023-02-26T18:37:23;16.17;;;8.50;;
2888;SDS011;1453;42.708;23.282;2023-02-26T18:39:51;15.17;;;7.43;;
2888;SDS011;1453;42.708;23.282;2023-02-26T18:44:51;21.90;;;7.43;;
2888;SDS011;1453;42.708;23.282;2023-02-26T18:47:18;14.63;;;7.50;;
2888;SDS011;1453;42.708;23.282;2023-02-26T18:49:46;19.20;;;7.53;;